John James Audubon — WDE8037 — position and weather

sailwx.info

Track history (hours):
 
Tides and Currents Weather Stations Pressure Air Temp Water Temp Dewpoint Dewpoint Depression Visibility Wind Speed Wind Dir Waves Ship Positions

John James Audubon

Owner: Statue Cruises, Jersey City, NJ. More information available from US FCC via Universal Licensing System and Coast Guard Vessel Documentation Center.

Last reported at 2015-Aug-02 04:33 UTC. Time now 2015-Aug-02 08:23 UTC.
Position N 40°44' W 074°01'.

Length 37 m.

Type: Ship. MMSI: 367400770.

Date/timePositionNaut miles runAvg speedWind from/ knotsBaromVisibWave heightAir tempDewpointWater temp
2015-Aug-02 04:33N 40°44' W 074°01'3 2.9
2015-Aug-02 03:33N 40°41' W 074°02'4 3.8
2015-Aug-02 02:33N 40°45' W 074°01'1 1.1
2015-Aug-02 01:33N 40°44' W 074°01'0 0.0
2015-Aug-02 00:33N 40°44' W 074°01'0 0.0
2015-Aug-01 23:33N 40°44' W 074°01'0 0.0
2015-Aug-01 22:33N 40°44' W 074°01'0 0.0
2015-Aug-01 21:33N 40°44' W 074°01'0 0.0
2015-Aug-01 20:33N 40°44' W 074°01'2 1.6
2015-Aug-01 19:33N 40°42' W 074°00'0 0.0
2015-Aug-01 18:33N 40°42' W 074°00'2 1.7
2015-Aug-01 17:33N 40°41' W 074°02'2 1.7
2015-Aug-01 16:33N 40°42' W 074°00'0 0.0
2015-Aug-01 15:33N 40°42' W 074°00'1 0.9
2015-Aug-01 14:33N 40°42' W 074°01'1 1.1
2015-Aug-01 13:33N 40°41' W 074°02'2 2.0
2015-Aug-01 12:33N 40°43' W 074°01'1 0.1
2015-Jul-31 21:33N 40°44' W 074°01'0 0.0
2015-Jul-31 20:33N 40°44' W 074°01'2 1.6
2015-Jul-31 19:33N 40°42' W 074°00'0 0.0
2015-Jul-31 18:33N 40°42' W 074°00'1 1.5
2015-Jul-31 17:33N 40°41' W 074°02'1 1.5
2015-Jul-31 16:33N 40°42' W 074°00'0 0.0
2015-Jul-31 15:33N 40°42' W 074°00'2 1.6
2015-Jul-31 14:33N 40°42' W 074°02'2 1.5
2015-Jul-31 13:33N 40°43' W 074°01'1 0.1
2015-Jul-30 23:33N 40°44' W 074°01'2 1.8
2015-Jul-30 22:33N 40°42' W 074°01'1 0.6
2015-Jul-30 21:33N 40°42' W 074°02'1 1.2
2015-Jul-30 20:33N 40°42' W 074°00'0 0.0
2015-Jul-30 19:33N 40°42' W 074°00'1 1.1
2015-Jul-30 18:33N 40°42' W 074°01'1 1.0
2015-Jul-30 17:33N 40°42' W 074°00'0 0.0
2015-Jul-30 16:33N 40°42' W 074°00'1 1.2
2015-Jul-30 15:33N 40°42' W 074°01'1 1.2
2015-Jul-30 14:33N 40°42' W 074°00'0 0.0
2015-Jul-30 13:33N 40°42' W 074°00'2 0.1
2015-Jul-29 20:27N 40°44' W 074°01'2 1.8
2015-Jul-29 19:33N 40°42' W 074°00'0 0.0
2015-Jul-29 18:33N 40°42' W 074°00'2 1.5
2015-Jul-29 17:33N 40°41' W 074°02'2 1.5
2015-Jul-29 16:33N 40°42' W 074°00'0 0.0
2015-Jul-29 15:33N 40°42' W 074°00'2 2.0
2015-Jul-29 14:33N 40°41' W 074°02'2 1.8
2015-Jul-29 13:33N 40°43' W 074°01'2 0.2
2015-Jul-29 02:33N 40°41' W 074°02'8 7.7
2015-Jul-29 01:33N 40°49' W 073°59'3 2.7
2015-Jul-29 00:33N 40°46' W 074°00'2 2.4
2015-Jul-28 23:33N 40°44' W 074°01'0 0.0
2015-Jul-28 22:33N 40°44' W 074°01'0 0.0
2015-Jul-28 21:33N 40°44' W 074°01'0 0.0
2015-Jul-28 20:33N 40°44' W 074°01'2 1.6
2015-Jul-28 19:33N 40°42' W 074°00'0 0.0
2015-Jul-28 18:33N 40°42' W 074°00'2 1.6
2015-Jul-28 17:33N 40°41' W 074°02'2 1.6
2015-Jul-28 16:33N 40°42' W 074°00'0 0.0
2015-Jul-28 15:33N 40°42' W 074°00'2 1.8
2015-Jul-28 14:33N 40°41' W 074°02'2 1.8
2015-Jul-28 13:33N 40°43' W 074°01'1 0.1
2015-Jul-27 20:16N 40°44' W 074°01'2 2.3
2015-Jul-27 19:34N 40°42' W 074°00'0 0.0
2015-Jul-27 18:33N 40°42' W 074°00'2 1.6
2015-Jul-27 17:33N 40°41' W 074°02'2 1.6
2015-Jul-27 16:34N 40°42' W 074°00'0 0.0
2015-Jul-27 15:33N 40°42' W 074°00'1 1.3
2015-Jul-27 14:33N 40°42' W 074°02'1 0.6
2015-Jul-27 13:33N 40°42' W 074°01'2 1.8
2015-Jul-27 12:33N 40°44' W 074°01'0 0.0
2015-Jul-27 02:12N 40°44' W 074°01'3 4.2
2015-Jul-27 01:33N 40°41' W 074°02'4 3.7
2015-Jul-27 00:33N 40°45' W 074°01'1 1.1
2015-Jul-26 23:33N 40°44' W 074°01'0 0.0
2015-Jul-26 22:33N 40°44' W 074°01'0 0.0
2015-Jul-26 21:33N 40°44' W 074°01'0 0.0
2015-Jul-26 20:33N 40°44' W 074°01'2 1.6
2015-Jul-26 19:33N 40°42' W 074°00'0 0.0
2015-Jul-26 18:33N 40°42' W 074°00'1 1.0
2015-Jul-26 17:33N 40°42' W 074°01'1 1.0
2015-Jul-26 16:33N 40°42' W 074°00'0 0.0
2015-Jul-26 15:33N 40°42' W 074°00'0 0.0
2015-Jul-26 14:33N 40°42' W 074°00'0 0.5
2015-Jul-26 13:33N 40°42' W 074°01'2 1.9
2015-Jul-26 12:33N 40°44' W 074°01'0 0.0
2015-Jul-26 04:20N 40°44' W 074°01'1 0.9
2015-Jul-26 03:33N 40°43' W 074°01'0 0.4
2015-Jul-26 02:33N 40°44' W 074°02'1 0.7
2015-Jul-26 01:33N 40°44' W 074°01'0 0.0
2015-Jul-25 20:32N 40°44' W 074°01'2 1.6
2015-Jul-25 19:33N 40°42' W 074°00'0 0.0
2015-Jul-25 18:33N 40°42' W 074°00'1 1.0
2015-Jul-25 17:33N 40°42' W 074°01'1 1.0
2015-Jul-25 16:33N 40°42' W 074°00'0 0.4
2015-Jul-25 15:33N 40°42' W 074°01'2 1.5
2015-Jul-25 14:33N 40°41' W 074°02'1 1.1
2015-Jul-25 13:33N 40°42' W 074°01'1 0.8
2015-Jul-25 12:33N 40°42' W 074°00'2 0.1
2015-Jul-24 22:34N 40°44' W 074°01'2 2.2
2015-Jul-24 21:34N 40°42' W 074°01'1 1.0
2015-Jul-24 20:34N 40°42' W 074°00'0 0.0
2015-Jul-24 19:34N 40°42' W 074°00'1 0.9
2015-Jul-24 18:34N 40°42' W 074°01'1 0.9
2015-Jul-24 17:34N 40°42' W 074°00'0 0.1
2015-Jul-24 16:33N 40°42' W 074°00'1 1.0
2015-Jul-24 15:34N 40°42' W 074°01'1 1.1
2015-Jul-24 14:34N 40°42' W 074°00'0 0.0
2015-Jul-24 13:34N 40°42' W 074°00'2 1.6
2015-Jul-24 12:34N 40°44' W 074°01'0 0.0
2015-Jul-24 01:33N 40°44' W 074°01'2 2.3
2015-Jul-24 00:33N 40°42' W 074°02'2 2.4
2015-Jul-23 23:33N 40°44' W 074°01'0 0.4
2015-Jul-23 22:33N 40°44' W 074°01'0 0.0
2015-Jul-23 20:33N 40°44' W 074°01'2 1.6
2015-Jul-23 19:33N 40°42' W 074°00'0 0.0
2015-Jul-23 18:33N 40°42' W 074°00'1 1.3
2015-Jul-23 17:33N 40°42' W 074°02'1 1.3
2015-Jul-23 16:33N 40°42' W 074°00'0 0.4
2015-Jul-23 15:33N 40°42' W 074°01'1 0.5
2015-Jul-23 14:33N 40°42' W 074°01'1 0.9
2015-Jul-23 13:33N 40°42' W 074°00'  
Track history (hours):
 
Tides and Currents Weather Stations Pressure Air Temp Water Temp Dewpoint Dewpoint Depression Visibility Wind Speed Wind Dir Waves Ship Positions

John James Audubon

Owner: Statue Cruises, Jersey City, NJ. More information available from US FCC via Universal Licensing System and Coast Guard Vessel Documentation Center.

Last reported at 2015-Aug-02 04:33 UTC. Time now 2015-Aug-02 08:23 UTC.
Position N 40°44' W 074°01'.

Length 37 m.

Type: Ship. MMSI: 367400770.

Date/timePositionNaut miles runAvg speedWind from/ knotsBaromVisibWave heightAir tempDewpointWater temp
2015-Aug-02 04:33N 40°44' W 074°01'3 2.9
2015-Aug-02 03:33N 40°41' W 074°02'4 3.8
2015-Aug-02 02:33N 40°45' W 074°01'1 1.1
2015-Aug-02 01:33N 40°44' W 074°01'0 0.0
2015-Aug-02 00:33N 40°44' W 074°01'0 0.0
2015-Aug-01 23:33N 40°44' W 074°01'0 0.0
2015-Aug-01 22:33N 40°44' W 074°01'0 0.0
2015-Aug-01 21:33N 40°44' W 074°01'0 0.0
2015-Aug-01 20:33N 40°44' W 074°01'2 1.6
2015-Aug-01 19:33N 40°42' W 074°00'0 0.0
2015-Aug-01 18:33N 40°42' W 074°00'2 1.7
2015-Aug-01 17:33N 40°41' W 074°02'2 1.7
2015-Aug-01 16:33N 40°42' W 074°00'0 0.0
2015-Aug-01 15:33N 40°42' W 074°00'1 0.9
2015-Aug-01 14:33N 40°42' W 074°01'1 1.1
2015-Aug-01 13:33N 40°41' W 074°02'2 2.0
2015-Aug-01 12:33N 40°43' W 074°01'1 0.1
2015-Jul-31 21:33N 40°44' W 074°01'0 0.0
2015-Jul-31 20:33N 40°44' W 074°01'2 1.6
2015-Jul-31 19:33N 40°42' W 074°00'0 0.0
2015-Jul-31 18:33N 40°42' W 074°00'1 1.5
2015-Jul-31 17:33N 40°41' W 074°02'1 1.5
2015-Jul-31 16:33N 40°42' W 074°00'0 0.0
2015-Jul-31 15:33N 40°42' W 074°00'2 1.6
2015-Jul-31 14:33N 40°42' W 074°02'2 1.5
2015-Jul-31 13:33N 40°43' W 074°01'1 0.1
2015-Jul-30 23:33N 40°44' W 074°01'2 1.8
2015-Jul-30 22:33N 40°42' W 074°01'1 0.6
2015-Jul-30 21:33N 40°42' W 074°02'1 1.2
2015-Jul-30 20:33N 40°42' W 074°00'0 0.0
2015-Jul-30 19:33N 40°42' W 074°00'1 1.1
2015-Jul-30 18:33N 40°42' W 074°01'1 1.0
2015-Jul-30 17:33N 40°42' W 074°00'0 0.0
2015-Jul-30 16:33N 40°42' W 074°00'1 1.2
2015-Jul-30 15:33N 40°42' W 074°01'1 1.2
2015-Jul-30 14:33N 40°42' W 074°00'0 0.0
2015-Jul-30 13:33N 40°42' W 074°00'2 0.1
2015-Jul-29 20:27N 40°44' W 074°01'2 1.8
2015-Jul-29 19:33N 40°42' W 074°00'0 0.0
2015-Jul-29 18:33N 40°42' W 074°00'2 1.5
2015-Jul-29 17:33N 40°41' W 074°02'2 1.5
2015-Jul-29 16:33N 40°42' W 074°00'0 0.0
2015-Jul-29 15:33N 40°42' W 074°00'2 2.0
2015-Jul-29 14:33N 40°41' W 074°02'2 1.8
2015-Jul-29 13:33N 40°43' W 074°01'2 0.2
2015-Jul-29 02:33N 40°41' W 074°02'8 7.7
2015-Jul-29 01:33N 40°49' W 073°59'3 2.7
2015-Jul-29 00:33N 40°46' W 074°00'2 2.4
2015-Jul-28 23:33N 40°44' W 074°01'0 0.0
2015-Jul-28 22:33N 40°44' W 074°01'0 0.0
2015-Jul-28 21:33N 40°44' W 074°01'0 0.0
2015-Jul-28 20:33N 40°44' W 074°01'2 1.6
2015-Jul-28 19:33N 40°42' W 074°00'0 0.0
2015-Jul-28 18:33N 40°42' W 074°00'2 1.6
2015-Jul-28 17:33N 40°41' W 074°02'2 1.6
2015-Jul-28 16:33N 40°42' W 074°00'0 0.0
2015-Jul-28 15:33N 40°42' W 074°00'2 1.8
2015-Jul-28 14:33N 40°41' W 074°02'2 1.8
2015-Jul-28 13:33N 40°43' W 074°01'1 0.1
2015-Jul-27 20:16N 40°44' W 074°01'2 2.3
2015-Jul-27 19:34N 40°42' W 074°00'0 0.0
2015-Jul-27 18:33N 40°42' W 074°00'2 1.6
2015-Jul-27 17:33N 40°41' W 074°02'2 1.6
2015-Jul-27 16:34N 40°42' W 074°00'0 0.0
2015-Jul-27 15:33N 40°42' W 074°00'1 1.3
2015-Jul-27 14:33N 40°42' W 074°02'1 0.6
2015-Jul-27 13:33N 40°42' W 074°01'2 1.8
2015-Jul-27 12:33N 40°44' W 074°01'0 0.0
2015-Jul-27 02:12N 40°44' W 074°01'3 4.2
2015-Jul-27 01:33N 40°41' W 074°02'4 3.7
2015-Jul-27 00:33N 40°45' W 074°01'1 1.1
2015-Jul-26 23:33N 40°44' W 074°01'0 0.0
2015-Jul-26 22:33N 40°44' W 074°01'0 0.0
2015-Jul-26 21:33N 40°44' W 074°01'0 0.0
2015-Jul-26 20:33N 40°44' W 074°01'2 1.6
2015-Jul-26 19:33N 40°42' W 074°00'0 0.0
2015-Jul-26 18:33N 40°42' W 074°00'1 1.0
2015-Jul-26 17:33N 40°42' W 074°01'1 1.0
2015-Jul-26 16:33N 40°42' W 074°00'0 0.0
2015-Jul-26 15:33N 40°42' W 074°00'0 0.0
2015-Jul-26 14:33N 40°42' W 074°00'0 0.5
2015-Jul-26 13:33N 40°42' W 074°01'2 1.9
2015-Jul-26 12:33N 40°44' W 074°01'0 0.0
2015-Jul-26 04:20N 40°44' W 074°01'1 0.9
2015-Jul-26 03:33N 40°43' W 074°01'0 0.4
2015-Jul-26 02:33N 40°44' W 074°02'1 0.7
2015-Jul-26 01:33N 40°44' W 074°01'0 0.0
2015-Jul-25 20:32N 40°44' W 074°01'2 1.6
2015-Jul-25 19:33N 40°42' W 074°00'0 0.0
2015-Jul-25 18:33N 40°42' W 074°00'1 1.0
2015-Jul-25 17:33N 40°42' W 074°01'1 1.0
2015-Jul-25 16:33N 40°42' W 074°00'0 0.4
2015-Jul-25 15:33N 40°42' W 074°01'2 1.5
2015-Jul-25 14:33N 40°41' W 074°02'1 1.1
2015-Jul-25 13:33N 40°42' W 074°01'1 0.8
2015-Jul-25 12:33N 40°42' W 074°00'2 0.1
2015-Jul-24 22:34N 40°44' W 074°01'2 2.2
2015-Jul-24 21:34N 40°42' W 074°01'1 1.0
2015-Jul-24 20:34N 40°42' W 074°00'0 0.0
2015-Jul-24 19:34N 40°42' W 074°00'1 0.9
2015-Jul-24 18:34N 40°42' W 074°01'1 0.9
2015-Jul-24 17:34N 40°42' W 074°00'0 0.1
2015-Jul-24 16:33N 40°42' W 074°00'1 1.0
2015-Jul-24 15:34N 40°42' W 074°01'1 1.1
2015-Jul-24 14:34N 40°42' W 074°00'0 0.0
2015-Jul-24 13:34N 40°42' W 074°00'2 1.6
2015-Jul-24 12:34N 40°44' W 074°01'0 0.0
2015-Jul-24 01:33N 40°44' W 074°01'2 2.3
2015-Jul-24 00:33N 40°42' W 074°02'2 2.4
2015-Jul-23 23:33N 40°44' W 074°01'0 0.4
2015-Jul-23 22:33N 40°44' W 074°01'0 0.0
2015-Jul-23 20:33N 40°44' W 074°01'2 1.6
2015-Jul-23 19:33N 40°42' W 074°00'0 0.0
2015-Jul-23 18:33N 40°42' W 074°00'1 1.3
2015-Jul-23 17:33N 40°42' W 074°02'1 1.3
2015-Jul-23 16:33N 40°42' W 074°00'0 0.4
2015-Jul-23 15:33N 40°42' W 074°01'1 0.5
2015-Jul-23 14:33N 40°42' W 074°01'1 0.9
2015-Jul-23 13:33N 40°42' W 074°00'  

Dump ship's entire track history